Time;durP1;ratioP1;P1;durP2;ratioP2;P2;SDS_P1;SDS_P2;PMS_P1;PMS_P2;Temp;Humidity;BMP_temperature;BMP_pressure;BME280_temperature;BME280_humidity;BME280_pressure;Samples;Min_cycle;Max_cycle;Signal;HPM_P1;HPM_P2
2022/06/29 00:00:17;;;;;;;35.33;25.42;;;26.00;99.90;;;;;;5054863;28;20017;-70
2022/06/29 00:02:44;;;;;;;38.05;24.50;;;26.00;99.90;;;;;;5054758;28;20025;-70
2022/06/29 00:05:13;;;;;;;34.45;25.02;;;26.00;99.90;;;;;;5054708;28;20440;-69
2022/06/29 00:07:41;;;;;;;35.58;23.88;;;26.00;99.90;;;;;;5054916;28;20029;-71
2022/06/29 00:10:09;;;;;;;37.78;25.88;;;26.00;99.90;;;;;;5054278;28;20052;-70
2022/06/29 00:12:36;;;;;;;33.10;25.42;;;26.00;99.90;;;;;;5054636;28;20025;-70
2022/06/29 00:15:03;;;;;;;38.58;26.58;;;26.00;99.90;;;;;;5054249;28;20024;-71
2022/06/29 00:17:31;;;;;;;37.63;27.67;;;25.90;99.90;;;;;;5054409;28;20466;-72
2022/06/29 00:19:59;;;;;;;37.00;30.33;;;26.00;99.90;;;;;;5054355;28;20474;-71
2022/06/29 00:22:27;;;;;;;46.47;30.55;;;26.00;99.90;;;;;;5054475;28;20033;-70
2022/06/29 00:24:53;;;;;;;44.28;33.28;;;26.00;99.90;;;;;;5054284;28;20385;-70
2022/06/29 00:27:21;;;;;;;48.33;35.33;;;26.00;99.90;;;;;;5054295;28;20417;-74
2022/06/29 00:29:48;;;;;;;46.13;35.33;;;26.10;99.90;;;;;;5054291;28;20366;-70
2022/06/29 00:32:15;;;;;;;48.38;34.70;;;26.10;99.90;;;;;;5053971;28;20158;-70
2022/06/29 00:34:42;;;;;;;65.82;42.03;;;26.10;99.90;;;;;;5054130;28;20045;-71
2022/06/29 00:37:09;;;;;;;54.50;38.95;;;26.10;99.90;;;;;;5054189;28;20047;-70
2022/06/29 00:39:36;;;;;;;49.00;36.20;;;26.10;99.90;;;;;;5053941;28;20025;-69
2022/06/29 00:42:03;;;;;;;55.40;37.75;;;26.10;99.90;;;;;;5054108;28;20056;-70
2022/06/29 00:44:30;;;;;;;53.50;36.97;;;26.10;99.90;;;;;;5036140;28;20446;-66
2022/06/29 00:47:00;;;;;;;50.88;35.67;;;26.10;99.90;;;;;;5053777;28;20056;-65
2022/06/29 00:49:29;;;;;;;52.13;37.30;;;26.20;99.90;;;;;;5053793;28;20465;-66
2022/06/29 00:52:09;;;;;;;60.72;40.25;;;26.20;99.90;;;;;;5053822;28;20060;-66
2022/06/29 00:54:46;;;;;;;57.50;40.38;;;26.20;99.90;;;;;;5053824;28;20020;-66
2022/06/29 00:57:19;;;;;;;52.65;38.70;;;26.20;99.90;;;;;;5053706;28;20437;-64
2022/06/29 00:59:48;;;;;;;54.67;40.38;;;26.10;99.90;;;;;;5053802;28;20028;-68
2022/06/29 01:02:18;;;;;;;54.45;39.33;;;26.10;99.90;;;;;;5053608;28;20029;-66
2022/06/29 01:04:47;;;;;;;54.97;41.60;;;26.20;99.90;;;;;;5053505;28;20036;-65
2022/06/29 01:07:15;;;;;;;55.63;40.47;;;26.20;99.90;;;;;;5053646;28;20494;-65
2022/06/29 01:09:43;;;;;;;69.20;43.85;;;26.20;99.90;;;;;;5053678;28;20108;-65
2022/06/29 01:12:11;;;;;;;61.00;45.78;;;26.20;99.90;;;;;;5053065;28;20025;-65
2022/06/29 01:14:40;;;;;;;67.20;47.10;;;26.20;99.90;;;;;;5053421;28;20025;-65
2022/06/29 01:17:06;;;;;;;149.20;106.55;;;26.20;99.90;;;;;;5053353;28;20104;-66
2022/06/29 01:19:33;;;;;;;119.10;92.32;;;26.20;99.90;;;;;;5053228;28;20025;-67
2022/06/29 01:22:14;;;;;;;83.20;58.72;;;26.30;99.90;;;;;;5053367;28;20047;-67
2022/06/29 01:24:44;;;;;;;79.07;55.83;;;26.30;99.90;;;;;;5053246;28;20021;-65
2022/06/29 01:27:12;;;;;;;72.57;49.67;;;26.30;99.90;;;;;;5052533;28;20025;-66
2022/06/29 01:29:39;;;;;;;81.28;57.00;;;26.30;99.90;;;;;;5053233;28;20025;-66
2022/06/29 01:32:06;;;;;;;72.47;50.60;;;26.30;99.90;;;;;;5052469;28;20067;-66
2022/06/29 01:34:34;;;;;;;65.90;49.88;;;26.40;99.90;;;;;;5053074;28;20504;-68
2022/06/29 01:37:01;;;;;;;72.18;49.38;;;26.40;99.90;;;;;;5053096;28;20387;-67
2022/06/29 01:39:29;;;;;;;68.50;50.05;;;26.40;99.90;;;;;;5048007;28;20032;-67
2022/06/29 01:41:56;;;;;;;63.40;48.00;;;26.40;99.90;;;;;;5052764;28;20061;-66
2022/06/29 01:44:23;;;;;;;62.00;48.00;;;26.30;99.90;;;;;;5053139;28;20036;-67
2022/06/29 01:46:50;;;;;;;65.38;48.47;;;26.30;99.90;;;;;;5053016;28;20029;-69
2022/06/29 01:49:20;;;;;;;72.57;51.05;;;26.40;99.90;;;;;;5053262;28;20535;-66
2022/06/29 01:51:46;;;;;;;67.38;49.40;;;26.40;99.90;;;;;;5053122;28;20029;-67
2022/06/29 01:54:13;;;;;;;74.13;51.33;;;26.40;99.90;;;;;;5053032;28;20018;-66
2022/06/29 01:56:40;;;;;;;71.65;52.83;;;26.40;99.90;;;;;;5053147;28;20032;-66
2022/06/29 01:59:07;;;;;;;66.65;48.42;;;26.50;99.90;;;;;;5053159;28;20052;-67
2022/06/29 02:01:33;;;;;;;68.03;50.00;;;26.50;99.90;;;;;;5052952;28;20021;-67
2022/06/29 02:04:00;;;;;;;65.63;49.17;;;26.50;99.90;;;;;;5052928;28;20075;-67
2022/06/29 02:06:27;;;;;;;59.65;46.13;;;26.50;99.90;;;;;;5052949;28;20027;-67
2022/06/29 02:08:54;;;;;;;60.10;47.38;;;26.50;99.90;;;;;;5052866;28;20020;-67
2022/06/29 02:11:23;;;;;;;66.80;47.47;;;26.50;99.90;;;;;;5052842;28;20029;-67
2022/06/29 02:13:50;;;;;;;67.35;49.65;;;26.50;99.90;;;;;;5052917;28;20059;-66
2022/06/29 02:16:18;;;;;;;67.70;47.83;;;26.60;99.90;;;;;;5052611;28;20013;-65
2022/06/29 02:18:45;;;;;;;61.47;45.58;;;26.70;99.90;;;;;;5053219;28;20382;-66
2022/06/29 02:21:11;;;;;;;59.05;43.88;;;26.70;99.90;;;;;;5052854;28;20100;-66
2022/06/29 02:23:38;;;;;;;52.72;40.17;;;26.70;99.90;;;;;;5052609;28;20017;-66
2022/06/29 02:26:05;;;;;;;55.85;40.55;;;26.80;99.90;;;;;;5052802;28;20017;-67
2022/06/29 02:28:32;;;;;;;52.78;40.38;;;26.80;99.90;;;;;;5052636;28;20382;-66
2022/06/29 02:36:31;;;;;;;51.05;40.97;;;26.90;99.90;;;;;;4970483;28;20055;-67
2022/06/29 02:38:59;;;;;;;51.03;38.00;;;27.00;99.90;;;;;;4974955;28;20027;-67
2022/06/29 02:41:25;;;;;;;57.55;37.60;;;27.00;99.90;;;;;;4975612;28;20539;-67
2022/06/29 02:43:52;;;;;;;46.35;33.83;;;27.10;99.90;;;;;;4975458;28;20031;-67
2022/06/29 02:46:19;;;;;;;43.50;34.30;;;27.10;99.90;;;;;;4975363;28;20532;-64
2022/06/29 02:48:45;;;;;;;46.55;32.88;;;27.20;99.90;;;;;;4973693;28;20506;-65
2022/06/29 02:51:12;;;;;;;40.80;32.55;;;27.20;99.90;;;;;;4974211;28;20087;-66
2022/06/29 02:53:39;;;;;;;44.67;33.63;;;27.20;99.90;;;;;;4974917;28;20037;-67
2022/06/29 02:56:05;;;;;;;40.03;30.83;;;27.30;99.90;;;;;;4975019;28;20082;-67
2022/06/29 02:58:33;;;;;;;42.65;30.63;;;27.30;99.90;;;;;;4975150;28;20357;-68
2022/06/29 03:01:00;;;;;;;41.78;30.90;;;27.40;99.90;;;;;;4975045;28;20145;-65
2022/06/29 03:03:27;;;;;;;42.80;31.70;;;27.40;99.90;;;;;;4975079;28;20392;-67
2022/06/29 03:05:54;;;;;;;47.45;31.80;;;27.40;99.90;;;;;;4974921;28;20027;-67
2022/06/29 03:08:20;;;;;;;40.72;28.88;;;27.50;99.90;;;;;;4974995;28;20035;-66
2022/06/29 03:10:49;;;;;;;43.28;27.88;;;27.50;99.90;;;;;;4974966;28;20102;-65
2022/06/29 03:13:16;;;;;;;47.47;29.50;;;27.50;99.90;;;;;;5004023;28;20037;-66
2022/06/29 03:15:42;;;;;;;49.22;34.03;;;27.50;99.90;;;;;;5055079;28;20021;-68
2022/06/29 03:18:09;;;;;;;38.22;28.48;;;27.60;99.90;;;;;;5051330;28;20017;-64
2022/06/29 03:20:36;;;;;;;43.03;28.55;;;27.60;99.90;;;;;;5055230;28;20036;-66
2022/06/29 03:23:02;;;;;;;39.90;26.75;;;27.70;99.90;;;;;;5055144;28;20029;-65
2022/06/29 03:25:30;;;;;;;33.38;25.92;;;27.70;99.90;;;;;;5053730;28;20029;-66
2022/06/29 03:27:58;;;;;;;34.42;25.80;;;27.80;99.90;;;;;;5053452;28;20025;-65
2022/06/29 03:30:24;;;;;;;33.95;26.35;;;27.80;99.90;;;;;;5054323;28;20029;-65
2022/06/29 03:32:52;;;;;;;38.33;27.27;;;27.80;99.90;;;;;;5054360;28;20025;-67
2022/06/29 03:35:19;;;;;;;34.08;25.58;;;27.90;99.90;;;;;;5054331;28;20598;-66
2022/06/29 03:37:45;;;;;;;29.88;23.98;;;27.90;99.90;;;;;;5054587;28;20024;-66
2022/06/29 03:40:12;;;;;;;36.50;24.58;;;28.00;99.90;;;;;;5054475;28;20524;-66
2022/06/29 03:42:39;;;;;;;30.90;21.40;;;28.00;99.90;;;;;;5048862;28;20032;-65
2022/06/29 03:45:06;;;;;;;29.92;21.67;;;28.10;99.90;;;;;;5050768;28;20488;-66
2022/06/29 03:47:33;;;;;;;29.50;22.63;;;28.10;99.90;;;;;;5055093;28;20032;-65
2022/06/29 03:49:59;;;;;;;31.80;23.95;;;28.10;99.90;;;;;;5045013;28;20052;-67
2022/06/29 03:52:27;;;;;;;30.45;23.10;;;28.30;99.90;;;;;;5053997;28;20041;-65
2022/06/29 03:54:53;;;;;;;36.15;23.48;;;28.30;99.90;;;;;;5054958;28;20025;-68
2022/06/29 03:57:20;;;;;;;32.00;24.90;;;28.20;99.90;;;;;;5054792;28;20029;-65
2022/06/29 03:59:47;;;;;;;37.80;25.15;;;28.20;99.90;;;;;;5054913;28;20047;-66
2022/06/29 04:02:13;;;;;;;34.08;24.90;;;28.20;99.90;;;;;;5055014;28;20025;-67
2022/06/29 04:04:40;;;;;;;31.95;22.42;;;28.30;99.90;;;;;;5054971;28;20029;-69
2022/06/29 04:07:06;;;;;;;34.65;22.00;;;28.30;99.90;;;;;;5054737;28;20070;-66
2022/06/29 04:09:33;;;;;;;35.45;22.60;;;28.30;99.90;;;;;;5054980;28;20021;-66
2022/06/29 04:12:00;;;;;;;36.83;24.02;;;28.30;99.90;;;;;;5054323;28;20028;-66
2022/06/29 04:14:28;;;;;;;36.22;23.55;;;28.40;99.90;;;;;;5054296;28;20025;-66
2022/06/29 04:16:58;;;;;;;35.72;23.10;;;28.50;99.90;;;;;;5054527;28;20021;-67
2022/06/29 04:19:25;;;;;;;28.20;20.73;;;28.70;99.90;;;;;;5054250;28;20090;-68
2022/06/29 04:21:53;;;;;;;40.15;29.92;;;28.90;99.90;;;;;;5054479;28;20021;-67
2022/06/29 04:24:19;;;;;;;39.47;28.55;;;29.00;99.90;;;;;;5054365;28;20075;-66
2022/06/29 04:26:46;;;;;;;34.35;23.65;;;29.10;99.90;;;;;;5054214;28;20108;-67
2022/06/29 04:29:14;;;;;;;28.58;19.30;;;29.10;99.90;;;;;;5054337;28;20024;-66
2022/06/29 04:31:41;;;;;;;33.25;20.65;;;29.10;99.90;;;;;;5053815;28;20029;-67
2022/06/29 04:34:08;;;;;;;28.48;20.05;;;29.10;99.90;;;;;;5053423;28;20040;-66
2022/06/29 04:36:35;;;;;;;27.27;18.00;;;29.10;99.90;;;;;;5054198;28;20076;-66
2022/06/29 04:39:02;;;;;;;25.55;19.98;;;29.10;99.90;;;;;;5053298;28;20046;-66
2022/06/29 04:41:28;;;;;;;25.95;18.25;;;29.10;99.90;;;;;;5053992;28;20104;-68
2022/06/29 04:43:55;;;;;;;20.25;17.42;;;29.30;99.90;;;;;;5054021;28;20454;-65
2022/06/29 04:46:23;;;;;;;22.73;17.55;;;29.40;99.90;;;;;;5053604;28;20028;-66
2022/06/29 04:48:51;;;;;;;21.10;15.35;;;29.40;99.90;;;;;;5052914;28;20028;-68
2022/06/29 04:51:18;;;;;;;22.92;15.60;;;29.50;99.90;;;;;;5050132;28;20024;-66
2022/06/29 04:53:46;;;;;;;21.13;16.45;;;29.60;99.90;;;;;;5053247;28;20437;-65
2022/06/29 04:56:14;;;;;;;18.60;14.70;;;29.60;99.90;;;;;;5052509;28;20176;-67
2022/06/29 04:58:41;;;;;;;26.48;14.70;;;29.70;99.90;;;;;;5052810;28;20043;-68
2022/06/29 05:01:08;;;;;;;23.75;16.85;;;29.70;99.90;;;;;;5052787;28;20033;-66
2022/06/29 05:03:35;;;;;;;21.40;15.00;;;29.60;99.90;;;;;;5054258;28;20112;-67
2022/06/29 05:08:32;;;;;;;29.65;20.45;;;29.50;99.90;;;;;;5054348;28;20028;-67
2022/06/29 05:10:59;;;;;;;23.10;16.67;;;29.60;99.90;;;;;;5053783;28;20496;-67
2022/06/29 05:13:25;;;;;;;19.55;15.25;;;29.60;99.90;;;;;;5039497;28;20022;-67
2022/06/29 05:15:52;;;;;;;20.13;15.13;;;29.60;99.90;;;;;;5033076;28;20025;-67
2022/06/29 05:18:19;;;;;;;20.95;13.55;;;29.60;99.90;;;;;;5032741;28;20386;-66
2022/06/29 05:20:46;;;;;;;17.85;13.57;;;29.70;99.90;;;;;;5033047;28;20033;-67
2022/06/29 05:23:13;;;;;;;21.35;12.25;;;29.70;99.90;;;;;;5015432;28;20390;-66
2022/06/29 05:25:40;;;;;;;22.42;12.10;;;29.80;99.90;;;;;;5032870;28;20029;-64
2022/06/29 05:28:08;;;;;;;20.55;11.75;;;29.80;99.90;;;;;;5033035;28;20030;-66
2022/06/29 05:30:35;;;;;;;18.70;12.70;;;29.80;99.90;;;;;;5033158;28;20486;-67
2022/06/29 05:33:02;;;;;;;18.77;12.38;;;29.80;99.90;;;;;;5032766;28;20121;-66
2022/06/29 05:35:33;;;;;;;17.77;10.68;;;29.90;99.90;;;;;;5033278;28;20036;-66
2022/06/29 05:38:01;;;;;;;19.33;12.40;;;29.90;99.90;;;;;;5032947;28;20049;-65
2022/06/29 05:40:29;;;;;;;18.92;10.70;;;30.00;99.90;;;;;;5032594;28;20098;-65
2022/06/29 05:42:59;;;;;;;16.90;10.57;;;30.00;99.90;;;;;;5032797;28;20398;-66
2022/06/29 05:45:26;;;;;;;19.90;10.65;;;30.10;99.90;;;;;;5032678;28;20030;-65
2022/06/29 05:47:54;;;;;;;18.33;11.65;;;30.10;99.90;;;;;;5032561;28;20076;-65
2022/06/29 05:50:22;;;;;;;23.13;11.93;;;30.00;99.90;;;;;;5032850;28;20034;-66
2022/06/29 05:52:50;;;;;;;18.27;11.25;;;30.10;99.90;;;;;;5032682;28;20108;-69
2022/06/29 05:55:17;;;;;;;20.77;10.50;;;30.10;99.90;;;;;;5032230;28;20029;-66
2022/06/29 05:57:45;;;;;;;20.27;11.35;;;30.10;99.90;;;;;;5032664;28;20105;-66
2022/06/29 06:00:12;;;;;;;16.58;11.38;;;30.00;99.90;;;;;;5044043;28;20394;-67
2022/06/29 06:02:39;;;;;;;15.20;11.48;;;30.10;99.90;;;;;;5051006;28;20448;-65
2022/06/29 06:05:06;;;;;;;20.45;9.45;;;30.00;99.90;;;;;;5052220;28;20055;-70
2022/06/29 06:07:33;;;;;;;15.75;8.00;;;30.00;99.90;;;;;;5052353;28;20021;-70
2022/06/29 06:10:03;;;;;;;16.75;8.98;;;30.00;99.90;;;;;;5051509;28;20493;-67
2022/06/29 06:12:32;;;;;;;18.08;10.15;;;29.90;99.90;;;;;;5035313;28;20060;-67
2022/06/29 06:14:59;;;;;;;20.90;10.18;;;29.80;99.90;;;;;;5056087;28;20074;-67
2022/06/29 06:17:27;;;;;;;21.10;11.10;;;29.80;99.90;;;;;;5055806;28;20021;-66
2022/06/29 06:19:55;;;;;;;20.55;12.57;;;29.80;99.90;;;;;;5055738;28;20032;-65
2022/06/29 06:22:22;;;;;;;20.08;12.18;;;29.80;99.90;;;;;;5056790;28;20058;-66
2022/06/29 06:24:49;;;;;;;20.33;13.23;;;29.80;99.90;;;;;;5056039;28;20050;-67
2022/06/29 06:27:17;;;;;;;18.50;11.82;;;29.70;99.90;;;;;;5055975;28;20166;-66
2022/06/29 06:29:45;;;;;;;19.02;12.52;;;29.70;99.90;;;;;;5036994;28;20437;-67
2022/06/29 06:32:12;;;;;;;20.50;13.13;;;29.70;99.90;;;;;;5054872;28;20515;-67
2022/06/29 06:34:39;;;;;;;17.95;11.45;;;29.80;99.90;;;;;;5056313;28;20381;-66
2022/06/29 06:37:05;;;;;;;18.98;12.88;;;29.90;99.90;;;;;;5055656;28;20025;-66
2022/06/29 06:39:32;;;;;;;17.63;11.30;;;29.90;99.90;;;;;;5054988;28;20100;-67
2022/06/29 06:41:59;;;;;;;17.98;11.63;;;29.80;99.90;;;;;;5043947;28;20020;-67
2022/06/29 06:44:25;;;;;;;17.98;11.48;;;29.80;99.90;;;;;;5051597;28;20103;-67
2022/06/29 06:46:52;;;;;;;15.98;11.02;;;29.90;99.90;;;;;;5053568;28;20032;-66
2022/06/29 06:49:23;;;;;;;17.00;11.98;;;29.90;99.90;;;;;;5036042;28;20035;-66
2022/06/29 06:51:51;;;;;;;20.63;12.07;;;29.90;99.90;;;;;;5056109;28;20033;-66
2022/06/29 06:54:18;;;;;;;18.67;12.30;;;29.90;99.90;;;;;;5055033;28;20444;-67
2022/06/29 06:56:44;;;;;;;21.75;11.85;;;29.90;99.90;;;;;;5055815;28;20052;-66
2022/06/29 06:59:11;;;;;;;18.98;12.80;;;29.90;99.90;;;;;;5055004;28;20027;-66
2022/06/29 07:01:38;;;;;;;21.58;12.85;;;29.90;99.90;;;;;;5055425;28;20091;-67
2022/06/29 07:04:05;;;;;;;21.48;12.98;;;29.90;99.90;;;;;;5055136;28;20493;-67
2022/06/29 07:06:32;;;;;;;16.13;11.57;;;30.00;99.90;;;;;;5054283;28;20041;-66
2022/06/29 07:09:03;;;;;;;19.67;12.65;;;30.00;99.90;;;;;;5052314;28;20041;-67
2022/06/29 07:11:30;;;;;;;18.15;13.18;;;30.10;99.90;;;;;;5040800;28;20023;-67
2022/06/29 07:13:57;;;;;;;23.77;13.32;;;30.10;99.90;;;;;;5045717;28;20534;-66
2022/06/29 07:16:23;;;;;;;31.63;18.88;;;30.20;99.90;;;;;;5053671;28;20029;-67
2022/06/29 07:18:50;;;;;;;20.83;13.45;;;30.10;99.90;;;;;;5048320;28;20094;-66
2022/06/29 07:21:17;;;;;;;18.67;10.25;;;30.10;99.90;;;;;;5046806;28;20158;-67
2022/06/29 07:23:44;;;;;;;21.23;11.10;;;30.10;99.90;;;;;;5044058;28;20085;-66
2022/06/29 07:26:11;;;;;;;16.65;11.13;;;30.10;99.90;;;;;;5030714;28;20044;-67
2022/06/29 07:28:39;;;;;;;19.85;8.00;;;30.20;99.90;;;;;;5054836;28;20424;-66
2022/06/29 07:31:15;;;;;;;15.15;9.52;;;30.10;99.90;;;;;;5044503;28;20021;-67
2022/06/29 07:33:41;;;;;;;18.42;10.10;;;30.10;99.90;;;;;;5052537;28;20096;-66
2022/06/29 07:36:08;;;;;;;16.50;9.55;;;30.10;99.90;;;;;;5034717;28;20107;-66
2022/06/29 07:38:35;;;;;;;16.08;8.63;;;30.10;99.90;;;;;;5044754;28;20408;-67
2022/06/29 07:41:03;;;;;;;18.42;9.30;;;30.20;99.90;;;;;;5035793;28;20155;-66
2022/06/29 07:43:30;;;;;;;15.23;9.43;;;30.20;99.90;;;;;;5049552;28;20035;-67
2022/06/29 07:45:57;;;;;;;15.85;10.63;;;30.30;99.90;;;;;;5055146;28;20032;-67
2022/06/29 07:48:25;;;;;;;23.35;11.68;;;30.40;99.90;;;;;;5036845;28;20032;-67
2022/06/29 07:50:53;;;;;;;20.55;10.90;;;30.40;99.90;;;;;;5054646;28;20017;-67
2022/06/29 07:53:20;;;;;;;21.55;11.00;;;30.40;99.90;;;;;;5054288;28;20037;-67
2022/06/29 07:55:51;;;;;;;18.77;11.35;;;30.40;99.90;;;;;;5054365;28;20017;-67
2022/06/29 07:58:18;;;;;;;22.88;9.35;;;30.40;99.90;;;;;;5053541;28;20021;-67
2022/06/29 08:00:45;;;;;;;18.15;8.18;;;30.40;99.90;;;;;;5047453;28;20033;-67
2022/06/29 08:03:13;;;;;;;17.35;9.85;;;30.40;99.90;;;;;;5052786;28;20025;-65
2022/06/29 08:05:40;;;;;;;20.58;8.50;;;30.40;99.90;;;;;;5053190;28;20111;-66
2022/06/29 08:08:08;;;;;;;20.33;8.23;;;30.30;99.90;;;;;;5054354;28;20501;-65
2022/06/29 08:10:35;;;;;;;9.25;6.18;;;30.30;99.90;;;;;;5053105;28;20496;-67
2022/06/29 08:13:02;;;;;;;16.02;8.20;;;30.30;99.90;;;;;;5053100;28;20091;-66
2022/06/29 08:15:29;;;;;;;13.23;7.07;;;30.30;99.90;;;;;;5053394;28;20434;-66
2022/06/29 08:17:56;;;;;;;18.23;8.27;;;30.30;99.90;;;;;;5048588;28;20076;-66
2022/06/29 08:20:23;;;;;;;18.42;9.75;;;30.20;99.90;;;;;;5049079;28;20025;-66
2022/06/29 08:22:50;;;;;;;20.23;13.27;;;30.30;99.90;;;;;;5045643;28;20045;-65
2022/06/29 08:25:17;;;;;;;15.68;9.75;;;30.30;99.90;;;;;;5048441;28;20480;-67
2022/06/29 08:27:49;;;;;;;16.58;8.05;;;30.20;99.90;;;;;;5045643;28;20359;-66
2022/06/29 08:30:16;;;;;;;14.13;8.05;;;30.20;99.90;;;;;;5044756;28;20024;-67
2022/06/29 08:32:44;;;;;;;15.88;9.55;;;30.20;99.90;;;;;;5048315;28;20096;-68
2022/06/29 08:35:12;;;;;;;12.57;9.18;;;30.20;99.90;;;;;;5050706;28;20041;-67
2022/06/29 08:37:40;;;;;;;18.70;9.52;;;30.10;99.90;;;;;;5051785;28;20044;-67
2022/06/29 08:40:08;;;;;;;17.75;9.02;;;30.00;99.90;;;;;;5047511;28;20064;-66
2022/06/29 08:42:37;;;;;;;18.77;11.02;;;30.10;99.90;;;;;;5048360;28;20051;-66
2022/06/29 08:45:05;;;;;;;16.35;9.57;;;30.10;99.90;;;;;;5052292;28;20048;-67
2022/06/29 08:47:32;;;;;;;14.48;9.10;;;30.00;99.90;;;;;;5053402;28;20087;-67
2022/06/29 08:49:59;;;;;;;15.65;8.95;;;30.00;99.90;;;;;;5045186;28;20038;-67
2022/06/29 08:52:26;;;;;;;18.83;8.88;;;30.00;99.90;;;;;;5048136;28;20035;-67
2022/06/29 08:54:54;;;;;;;17.30;9.07;;;30.00;99.90;;;;;;5052608;28;20613;-67
2022/06/29 08:57:23;;;;;;;17.45;9.38;;;30.10;99.90;;;;;;5053905;28;20062;-67
2022/06/29 08:59:57;;;;;;;18.75;9.30;;;30.10;99.90;;;;;;5054496;28;20055;-67
2022/06/29 09:02:24;;;;;;;23.25;8.95;;;30.20;99.90;;;;;;5051094;28;20024;-68
2022/06/29 09:04:51;;;;;;;30.23;11.63;;;30.30;99.90;;;;;;5053927;28;20029;-67
2022/06/29 09:07:19;;;;;;;19.08;9.93;;;30.30;99.90;;;;;;5053820;28;20028;-67
2022/06/29 09:09:58;;;;;;;18.13;11.43;;;30.30;99.90;;;;;;5053804;28;20021;-68
2022/06/29 09:12:25;;;;;;;17.38;10.10;;;30.40;99.90;;;;;;5051007;28;20037;-67
2022/06/29 09:14:52;;;;;;;15.43;9.73;;;30.40;99.90;;;;;;5047311;28;20024;-67
2022/06/29 09:17:19;;;;;;;21.33;10.93;;;30.40;99.90;;;;;;5050635;28;20099;-65
2022/06/29 09:19:47;;;;;;;20.30;12.52;;;30.30;99.90;;;;;;5041682;28;20048;-65
2022/06/29 09:22:14;;;;;;;19.67;9.60;;;30.30;99.90;;;;;;5027955;28;20021;-66
2022/06/29 09:24:41;;;;;;;21.05;8.60;;;30.20;99.90;;;;;;5051736;28;20100;-65
2022/06/29 09:27:11;;;;;;;15.88;9.18;;;30.30;99.90;;;;;;5050336;28;20532;-68
2022/06/29 09:29:42;;;;;;;18.30;9.55;;;30.20;99.90;;;;;;5050768;28;20025;-66
2022/06/29 09:32:15;;;;;;;17.52;10.35;;;30.20;99.90;;;;;;5050781;28;20025;-67
2022/06/29 09:34:43;;;;;;;32.22;18.08;;;30.20;99.90;;;;;;5051606;28;20677;-64
2022/06/29 09:37:17;;;;;;;26.15;12.88;;;30.10;99.90;;;;;;5048078;28;20021;-66
2022/06/29 09:39:48;;;;;;;22.67;11.55;;;30.10;99.90;;;;;;5047327;28;20032;-68
2022/06/29 09:42:17;;;;;;;51.75;19.95;;;30.00;99.90;;;;;;5033337;28;20041;-67
2022/06/29 09:44:45;;;;;;;21.25;11.65;;;30.10;99.90;;;;;;5051869;28;20021;-66
2022/06/29 09:47:16;;;;;;;26.17;11.68;;;30.00;99.90;;;;;;5049272;28;20013;-65
2022/06/29 09:49:46;;;;;;;16.60;9.65;;;30.00;99.90;;;;;;5034009;28;20116;-65
2022/06/29 09:52:15;;;;;;;17.70;10.43;;;29.90;99.90;;;;;;5052123;28;20033;-68
2022/06/29 09:54:57;;;;;;;21.77;11.20;;;30.00;99.90;;;;;;5044486;28;20028;-67
2022/06/29 09:57:28;;;;;;;;;;;29.90;99.90;;;;;;5054158;28;20100;-66
2022/06/29 10:02:50;;;;;;;25.20;14.45;;;29.90;99.90;;;;;;5033412;28;20037;-66
2022/06/29 10:05:20;;;;;;;24.17;11.68;;;29.90;99.90;;;;;;5045419;28;20546;-65
2022/06/29 10:07:50;;;;;;;25.88;14.98;;;29.90;99.90;;;;;;5052525;28;20301;-68
2022/06/29 10:10:20;;;;;;;34.75;18.40;;;29.90;99.90;;;;;;5042954;28;20028;-66
2022/06/29 10:16:23;;;;;;;29.30;17.27;;;29.90;99.90;;;;;;5032887;28;20406;-68
2022/06/29 10:19:03;;;;;;;32.85;18.98;;;29.90;99.90;;;;;;5051989;28;20043;-67
2022/06/29 10:21:32;;;;;;;30.65;17.92;;;29.90;99.90;;;;;;5052193;28;20512;-67
2022/06/29 10:24:00;;;;;;;34.05;16.88;;;29.90;99.90;;;;;;5038407;28;20025;-67
2022/06/29 10:26:35;;;;;;;29.60;17.27;;;29.80;99.90;;;;;;5039184;28;20500;-65
2022/06/29 10:29:06;;;;;;;28.15;15.73;;;29.70;99.90;;;;;;5052322;28;20370;-67
2022/06/29 10:31:53;;;;;;;26.85;14.25;;;29.70;99.90;;;;;;5052605;28;20549;-67
2022/06/29 10:35:05;;;;;;;97.20;58.58;;;29.70;99.90;;;;;;5010386;28;20061;-66
2022/06/29 10:37:27;;;;;;;177.05;111.00;;;29.70;99.90;;;;;;5009896;28;20030;-65
2022/06/29 10:39:56;;;;;;;115.78;71.90;;;29.70;99.90;;;;;;5008858;28;20041;-66
2022/06/29 10:45:16;;;;;;;75.68;45.70;;;29.70;99.90;;;;;;5009251;28;20048;-66
2022/06/29 10:48:08;;;;;;;47.47;29.95;;;29.70;99.90;;;;;;5010831;28;20030;-64
2022/06/29 10:50:38;;;;;;;72.32;45.65;;;29.70;99.90;;;;;;4971930;28;20140;-65
2022/06/29 10:53:10;;;;;;;48.90;31.55;;;29.70;99.90;;;;;;4971380;28;20047;-66
2022/06/29 10:55:50;;;;;;;75.90;49.33;;;29.70;99.90;;;;;;4971524;28;20472;-65
2022/06/29 10:58:17;;;;;;;90.20;58.03;;;29.60;99.90;;;;;;4971334;28;20159;-66
2022/06/29 11:00:46;;;;;;;66.43;42.72;;;29.60;99.90;;;;;;4974673;28;20485;-66
2022/06/29 11:03:25;;;;;;;83.70;42.25;;;29.50;99.90;;;;;;4975262;28;20520;-66
2022/06/29 11:13:53;;;;;;;34.05;18.75;;;29.50;99.90;;;;;;4974892;28;20491;-65
2022/06/29 11:16:30;;;;;;;28.48;17.63;;;29.50;99.90;;;;;;4974719;28;20081;-65
2022/06/29 11:18:57;;;;;;;40.08;21.25;;;29.50;99.90;;;;;;4971573;28;20050;-66
2022/06/29 11:21:25;;;;;;;52.83;28.55;;;29.50;99.90;;;;;;5023057;28;20508;-66
2022/06/29 11:24:03;;;;;;;53.90;30.42;;;29.50;99.90;;;;;;5055168;28;20058;-65
2022/06/29 11:26:31;;;;;;;46.40;26.70;;;29.40;99.90;;;;;;5055592;28;20021;-65
2022/06/29 11:28:58;;;;;;;43.33;25.15;;;29.40;99.90;;;;;;5055130;28;20096;-67
2022/06/29 11:31:26;;;;;;;46.00;26.92;;;29.40;99.90;;;;;;5052907;28;20104;-67
2022/06/29 11:33:54;;;;;;;43.15;26.02;;;29.40;99.90;;;;;;5034666;28;20030;-67
2022/06/29 11:36:26;;;;;;;47.00;26.65;;;29.40;99.90;;;;;;5039568;28;20033;-66
2022/06/29 11:38:55;;;;;;;33.25;20.92;;;29.30;99.90;;;;;;5035340;28;20486;-64
2022/06/29 11:41:26;;;;;;;39.00;25.58;;;29.30;99.90;;;;;;5052557;28;20045;-63
2022/06/29 11:44:04;;;;;;;38.90;24.63;;;29.30;99.90;;;;;;5055741;28;20053;-64
2022/06/29 11:46:35;;;;;;;34.45;21.63;;;29.20;99.90;;;;;;5054889;28;20025;-64
2022/06/29 11:51:53;;;;;;;35.10;19.20;;;29.20;99.90;;;;;;5054950;28;20078;-63
2022/06/29 11:54:37;;;;;;;40.08;20.42;;;29.20;99.90;;;;;;5054450;28;20017;-64
2022/06/29 11:57:17;;;;;;;42.83;22.45;;;29.20;99.90;;;;;;5054253;28;20027;-64
2022/06/29 11:59:46;;;;;;;39.92;22.92;;;29.10;99.90;;;;;;5054429;28;20363;-64
2022/06/29 12:02:15;;;;;;;36.08;20.15;;;29.10;99.90;;;;;;5054612;28;20371;-64
2022/06/29 12:04:43;;;;;;;42.85;23.10;;;29.10;99.90;;;;;;5054551;28;20033;-64
2022/06/29 12:07:12;;;;;;;41.72;24.58;;;29.10;99.90;;;;;;5055049;28;20489;-64
2022/06/29 12:09:41;;;;;;;48.10;25.52;;;29.10;99.90;;;;;;5054579;28;20474;-63
2022/06/29 12:12:10;;;;;;;40.95;24.00;;;29.10;99.90;;;;;;5054083;28;20342;-64
2022/06/29 12:14:46;;;;;;;48.63;26.40;;;29.10;99.90;;;;;;5054522;28;20029;-64
2022/06/29 12:17:14;;;;;;;61.58;36.80;;;29.10;99.90;;;;;;5054314;28;20025;-64
2022/06/29 12:19:42;;;;;;;48.45;25.73;;;29.10;99.90;;;;;;5054339;28;20032;-65
2022/06/29 12:22:08;;;;;;;46.22;25.00;;;29.00;99.90;;;;;;5049100;28;20026;-64
2022/06/29 12:24:39;;;;;;;48.55;23.65;;;29.10;99.90;;;;;;5052272;28;20048;-64
2022/06/29 12:27:05;;;;;;;50.15;23.65;;;29.00;99.90;;;;;;5054169;28;20505;-63
2022/06/29 12:29:32;;;;;;;43.72;22.92;;;29.00;99.90;;;;;;5042618;28;20106;-64
2022/06/29 12:31:59;;;;;;;47.08;23.60;;;29.00;99.90;;;;;;5043802;28;20025;-65
2022/06/29 12:34:27;;;;;;;49.92;24.13;;;29.00;99.90;;;;;;5034227;28;20045;-65
2022/06/29 12:36:53;;;;;;;42.00;23.33;;;29.00;99.90;;;;;;5034171;28;20048;-63
2022/06/29 12:39:21;;;;;;;47.80;23.08;;;28.90;99.90;;;;;;5033645;28;20080;-65
2022/06/29 12:41:48;;;;;;;53.58;25.52;;;28.90;99.90;;;;;;5033930;28;20026;-64
2022/06/29 12:44:15;;;;;;;45.33;23.98;;;28.90;99.90;;;;;;5034065;28;20082;-63
2022/06/29 12:46:42;;;;;;;48.00;24.60;;;28.90;99.90;;;;;;5033869;28;20445;-62
2022/06/29 12:49:10;;;;;;;55.75;26.33;;;28.80;99.90;;;;;;5034004;28;20025;-62
2022/06/29 12:51:38;;;;;;;50.83;26.17;;;28.80;99.90;;;;;;5032967;28;20052;-63
2022/06/29 12:54:04;;;;;;;56.28;27.58;;;28.80;99.90;;;;;;5032213;28;20080;-64
2022/06/29 12:56:31;;;;;;;58.65;27.92;;;28.80;99.90;;;;;;5033674;28;20021;-65
2022/06/29 12:58:58;;;;;;;62.08;29.38;;;28.80;99.90;;;;;;5033656;28;20390;-64
2022/06/29 13:01:25;;;;;;;58.92;29.90;;;28.90;99.90;;;;;;5033478;28;20025;-64